sensor_id;sensor_type;location;lat;lon;timestamp;temperature;humidity
4411;DHT22;2218;51.408;7.208;2022-07-10T00:00:13;23.70;47.00
4411;DHT22;2218;51.408;7.208;2022-07-10T00:02:45;23.70;47.00
4411;DHT22;2218;51.408;7.208;2022-07-10T00:05:12;23.60;47.00
4411;DHT22;2218;51.408;7.208;2022-07-10T00:07:39;23.70;47.10
4411;DHT22;2218;51.408;7.208;2022-07-10T00:10:06;23.60;46.90
4411;DHT22;2218;51.408;7.208;2022-07-10T00:12:34;23.60;46.90
4411;DHT22;2218;51.408;7.208;2022-07-10T00:15:01;23.60;47.00
4411;DHT22;2218;51.408;7.208;2022-07-10T00:17:28;23.60;46.90
4411;DHT22;2218;51.408;7.208;2022-07-10T00:19:56;23.60;46.90
4411;DHT22;2218;51.408;7.208;2022-07-10T00:22:23;23.60;46.90
4411;DHT22;2218;51.408;7.208;2022-07-10T00:24:51;23.60;46.90
4411;DHT22;2218;51.408;7.208;2022-07-10T00:27:18;23.60;46.90
4411;DHT22;2218;51.408;7.208;2022-07-10T00:29:45;23.60;46.90
4411;DHT22;2218;51.408;7.208;2022-07-10T00:32:12;23.60;47.40
4411;DHT22;2218;51.408;7.208;2022-07-10T00:34:39;23.60;46.90
4411;DHT22;2218;51.408;7.208;2022-07-10T00:37:08;23.60;46.90
4411;DHT22;2218;51.408;7.208;2022-07-10T00:39:34;23.60;46.90
4411;DHT22;2218;51.408;7.208;2022-07-10T00:42:13;23.60;46.90
4411;DHT22;2218;51.408;7.208;2022-07-10T00:44:41;23.60;46.90
4411;DHT22;2218;51.408;7.208;2022-07-10T00:47:11;23.60;46.90
4411;DHT22;2218;51.408;7.208;2022-07-10T00:49:39;23.60;46.90
4411;DHT22;2218;51.408;7.208;2022-07-10T00:52:10;23.60;46.90
4411;DHT22;2218;51.408;7.208;2022-07-10T00:54:42;23.60;46.80
4411;DHT22;2218;51.408;7.208;2022-07-10T00:57:10;23.60;46.80
4411;DHT22;2218;51.408;7.208;2022-07-10T00:59:40;23.60;47.40
4411;DHT22;2218;51.408;7.208;2022-07-10T01:02:07;23.60;46.80
4411;DHT22;2218;51.408;7.208;2022-07-10T01:04:35;23.60;46.80
4411;DHT22;2218;51.408;7.208;2022-07-10T01:07:03;23.60;46.80
4411;DHT22;2218;51.408;7.208;2022-07-10T01:09:32;23.50;46.70
4411;DHT22;2218;51.408;7.208;2022-07-10T01:12:01;23.60;46.80
4411;DHT22;2218;51.408;7.208;2022-07-10T01:14:30;23.50;46.70
4411;DHT22;2218;51.408;7.208;2022-07-10T01:16:57;23.60;46.80
4411;DHT22;2218;51.408;7.208;2022-07-10T01:19:24;23.60;46.80
4411;DHT22;2218;51.408;7.208;2022-07-10T01:21:53;23.60;46.80
4411;DHT22;2218;51.408;7.208;2022-07-10T01:24:20;23.50;46.70
4411;DHT22;2218;51.408;7.208;2022-07-10T01:26:47;23.50;46.70
4411;DHT22;2218;51.408;7.208;2022-07-10T01:29:14;23.50;46.60
4411;DHT22;2218;51.408;7.208;2022-07-10T01:31:41;23.50;46.60
4411;DHT22;2218;51.408;7.208;2022-07-10T01:34:09;23.50;46.70
4411;DHT22;2218;51.408;7.208;2022-07-10T01:36:37;23.50;46.60
4411;DHT22;2218;51.408;7.208;2022-07-10T01:39:06;23.50;46.60
4411;DHT22;2218;51.408;7.208;2022-07-10T01:41:33;23.50;46.60
4411;DHT22;2218;51.408;7.208;2022-07-10T01:44:01;23.50;46.60
4411;DHT22;2218;51.408;7.208;2022-07-10T01:46:28;23.50;46.50
4411;DHT22;2218;51.408;7.208;2022-07-10T01:48:55;23.50;46.60
4411;DHT22;2218;51.408;7.208;2022-07-10T01:51:23;23.50;46.60
4411;DHT22;2218;51.408;7.208;2022-07-10T01:53:50;23.50;46.60
4411;DHT22;2218;51.408;7.208;2022-07-10T01:56:18;23.50;46.60
4411;DHT22;2218;51.408;7.208;2022-07-10T01:58:45;23.50;46.60
4411;DHT22;2218;51.408;7.208;2022-07-10T02:01:12;23.50;46.60
4411;DHT22;2218;51.408;7.208;2022-07-10T02:03:40;23.50;46.50
4411;DHT22;2218;51.408;7.208;2022-07-10T02:06:24;23.50;46.60
4411;DHT22;2218;51.408;7.208;2022-07-10T02:08:52;23.50;46.60
4411;DHT22;2218;51.408;7.208;2022-07-10T02:11:20;23.50;46.50
4411;DHT22;2218;51.408;7.208;2022-07-10T02:13:47;23.50;46.50
4411;DHT22;2218;51.408;7.208;2022-07-10T02:16:14;23.40;46.50
4411;DHT22;2218;51.408;7.208;2022-07-10T02:18:41;23.40;46.40
4411;DHT22;2218;51.408;7.208;2022-07-10T02:21:08;23.50;46.50
4411;DHT22;2218;51.408;7.208;2022-07-10T02:23:35;23.50;46.50
4411;DHT22;2218;51.408;7.208;2022-07-10T02:26:04;23.50;46.50
4411;DHT22;2218;51.408;7.208;2022-07-10T02:28:33;23.40;46.40
4411;DHT22;2218;51.408;7.208;2022-07-10T02:31:00;23.40;46.50
4411;DHT22;2218;51.408;7.208;2022-07-10T02:33:27;23.40;46.40
4411;DHT22;2218;51.408;7.208;2022-07-10T02:35:54;23.40;46.40
4411;DHT22;2218;51.408;7.208;2022-07-10T02:38:21;23.40;46.40
4411;DHT22;2218;51.408;7.208;2022-07-10T02:40:48;23.40;46.40
4411;DHT22;2218;51.408;7.208;2022-07-10T02:43:15;23.40;46.40
4411;DHT22;2218;51.408;7.208;2022-07-10T02:45:43;23.40;46.40
4411;DHT22;2218;51.408;7.208;2022-07-10T02:48:12;23.40;46.40
4411;DHT22;2218;51.408;7.208;2022-07-10T02:50:41;23.40;46.40
4411;DHT22;2218;51.408;7.208;2022-07-10T02:53:09;23.40;46.40
4411;DHT22;2218;51.408;7.208;2022-07-10T02:55:37;23.40;46.40
4411;DHT22;2218;51.408;7.208;2022-07-10T02:58:04;23.40;46.40
4411;DHT22;2218;51.408;7.208;2022-07-10T03:00:31;23.40;46.40
4411;DHT22;2218;51.408;7.208;2022-07-10T03:02:59;23.40;46.40
4411;DHT22;2218;51.408;7.208;2022-07-10T03:05:26;23.40;46.40
4411;DHT22;2218;51.408;7.208;2022-07-10T03:07:54;23.40;46.40
4411;DHT22;2218;51.408;7.208;2022-07-10T03:10:21;23.40;46.40
4411;DHT22;2218;51.408;7.208;2022-07-10T03:12:48;23.40;46.40
4411;DHT22;2218;51.408;7.208;2022-07-10T03:15:15;23.40;46.40
4411;DHT22;2218;51.408;7.208;2022-07-10T03:17:42;23.40;46.40
4411;DHT22;2218;51.408;7.208;2022-07-10T03:20:11;23.40;46.40
4411;DHT22;2218;51.408;7.208;2022-07-10T03:22:38;23.40;46.40
4411;DHT22;2218;51.408;7.208;2022-07-10T03:25:06;23.40;46.30
4411;DHT22;2218;51.408;7.208;2022-07-10T03:27:33;23.30;46.30
4411;DHT22;2218;51.408;7.208;2022-07-10T03:30:00;23.40;46.30
4411;DHT22;2218;51.408;7.208;2022-07-10T03:32:28;23.40;46.40
4411;DHT22;2218;51.408;7.208;2022-07-10T03:34:55;23.40;46.40
4411;DHT22;2218;51.408;7.208;2022-07-10T03:37:23;23.40;46.40
4411;DHT22;2218;51.408;7.208;2022-07-10T03:39:50;23.40;46.30
4411;DHT22;2218;51.408;7.208;2022-07-10T03:42:18;23.40;46.40
4411;DHT22;2218;51.408;7.208;2022-07-10T03:44:45;23.40;46.40
4411;DHT22;2218;51.408;7.208;2022-07-10T03:47:12;23.30;46.20
4411;DHT22;2218;51.408;7.208;2022-07-10T03:49:39;23.30;46.20
4411;DHT22;2218;51.408;7.208;2022-07-10T03:52:07;23.30;46.30
4411;DHT22;2218;51.408;7.208;2022-07-10T03:54:35;23.40;46.40
4411;DHT22;2218;51.408;7.208;2022-07-10T03:57:03;23.40;46.40
4411;DHT22;2218;51.408;7.208;2022-07-10T03:59:48;23.30;46.30
4411;DHT22;2218;51.408;7.208;2022-07-10T04:02:16;23.30;46.20
4411;DHT22;2218;51.408;7.208;2022-07-10T04:04:43;23.30;46.30
4411;DHT22;2218;51.408;7.208;2022-07-10T04:07:10;23.30;46.30
4411;DHT22;2218;51.408;7.208;2022-07-10T04:09:39;23.30;46.30
4411;DHT22;2218;51.408;7.208;2022-07-10T04:12:06;23.30;46.30
4411;DHT22;2218;51.408;7.208;2022-07-10T04:14:34;23.30;46.30
4411;DHT22;2218;51.408;7.208;2022-07-10T04:17:01;23.30;46.30
4411;DHT22;2218;51.408;7.208;2022-07-10T04:19:28;23.30;46.20
4411;DHT22;2218;51.408;7.208;2022-07-10T04:21:54;23.30;46.30
4411;DHT22;2218;51.408;7.208;2022-07-10T04:24:21;23.30;46.30
4411;DHT22;2218;51.408;7.208;2022-07-10T04:26:50;23.30;46.20
4411;DHT22;2218;51.408;7.208;2022-07-10T04:29:17;23.30;46.20
4411;DHT22;2218;51.408;7.208;2022-07-10T04:31:44;23.30;46.20
4411;DHT22;2218;51.408;7.208;2022-07-10T04:34:11;23.30;46.30
4411;DHT22;2218;51.408;7.208;2022-07-10T04:36:37;23.30;46.20
4411;DHT22;2218;51.408;7.208;2022-07-10T04:39:04;23.30;46.30
4411;DHT22;2218;51.408;7.208;2022-07-10T04:41:31;23.30;46.20
4411;DHT22;2218;51.408;7.208;2022-07-10T04:44:00;23.30;46.30
4411;DHT22;2218;51.408;7.208;2022-07-10T04:46:27;23.30;46.20
4411;DHT22;2218;51.408;7.208;2022-07-10T04:48:54;23.30;46.20
4411;DHT22;2218;51.408;7.208;2022-07-10T04:51:21;23.30;46.20
4411;DHT22;2218;51.408;7.208;2022-07-10T04:53:49;23.30;46.20
4411;DHT22;2218;51.408;7.208;2022-07-10T04:56:16;23.30;46.20
4411;DHT22;2218;51.408;7.208;2022-07-10T04:58:43;23.30;46.70
4411;DHT22;2218;51.408;7.208;2022-07-10T05:01:11;23.30;46.20
4411;DHT22;2218;51.408;7.208;2022-07-10T05:03:38;23.30;46.20
4411;DHT22;2218;51.408;7.208;2022-07-10T05:06:05;23.30;46.20
4411;DHT22;2218;51.408;7.208;2022-07-10T05:08:32;23.30;46.20
4411;DHT22;2218;51.408;7.208;2022-07-10T05:10:59;23.30;46.20
4411;DHT22;2218;51.408;7.208;2022-07-10T05:13:26;23.30;46.20
4411;DHT22;2218;51.408;7.208;2022-07-10T05:15:53;23.30;46.20
4411;DHT22;2218;51.408;7.208;2022-07-10T05:18:21;23.30;46.20
4411;DHT22;2218;51.408;7.208;2022-07-10T05:20:48;23.30;46.20
4411;DHT22;2218;51.408;7.208;2022-07-10T05:23:16;23.30;46.20
4411;DHT22;2218;51.408;7.208;2022-07-10T05:25:43;23.30;46.20
4411;DHT22;2218;51.408;7.208;2022-07-10T05:28:10;23.30;46.20
4411;DHT22;2218;51.408;7.208;2022-07-10T05:30:38;23.30;46.20
4411;DHT22;2218;51.408;7.208;2022-07-10T05:33:05;23.30;46.20
4411;DHT22;2218;51.408;7.208;2022-07-10T05:35:33;23.30;46.20
4411;DHT22;2218;51.408;7.208;2022-07-10T05:38:00;23.30;46.20
4411;DHT22;2218;51.408;7.208;2022-07-10T05:40:27;23.30;46.20
4411;DHT22;2218;51.408;7.208;2022-07-10T05:42:54;23.30;46.20
4411;DHT22;2218;51.408;7.208;2022-07-10T05:45:21;23.30;46.20
4411;DHT22;2218;51.408;7.208;2022-07-10T05:47:48;23.30;46.20
4411;DHT22;2218;51.408;7.208;2022-07-10T05:50:15;23.30;46.20
4411;DHT22;2218;51.408;7.208;2022-07-10T05:52:44;23.30;46.20
4411;DHT22;2218;51.408;7.208;2022-07-10T05:55:11;23.30;46.20
4411;DHT22;2218;51.408;7.208;2022-07-10T05:57:38;23.30;46.20
4411;DHT22;2218;51.408;7.208;2022-07-10T06:00:06;23.30;46.20
4411;DHT22;2218;51.408;7.208;2022-07-10T06:02:38;23.30;46.10
4411;DHT22;2218;51.408;7.208;2022-07-10T06:05:06;23.30;46.20
4411;DHT22;2218;51.408;7.208;2022-07-10T06:07:34;23.30;46.20
4411;DHT22;2218;51.408;7.208;2022-07-10T06:10:04;23.40;46.10
4411;DHT22;2218;51.408;7.208;2022-07-10T06:12:32;23.40;46.10
4411;DHT22;2218;51.408;7.208;2022-07-10T06:14:59;23.40;46.10
4411;DHT22;2218;51.408;7.208;2022-07-10T06:17:26;23.40;45.90
4411;DHT22;2218;51.408;7.208;2022-07-10T06:19:53;23.40;45.80
4411;DHT22;2218;51.408;7.208;2022-07-10T06:22:20;23.50;46.00
4411;DHT22;2218;51.408;7.208;2022-07-10T06:25:00;23.50;46.00
4411;DHT22;2218;51.408;7.208;2022-07-10T06:27:30;23.50;46.00
4411;DHT22;2218;51.408;7.208;2022-07-10T06:29:58;23.40;45.90
4411;DHT22;2218;51.408;7.208;2022-07-10T06:32:26;23.50;46.00
4411;DHT22;2218;51.408;7.208;2022-07-10T06:34:53;23.50;46.00
4411;DHT22;2218;51.408;7.208;2022-07-10T06:37:21;23.50;46.10
4411;DHT22;2218;51.408;7.208;2022-07-10T06:39:48;23.50;46.10
4411;DHT22;2218;51.408;7.208;2022-07-10T06:42:16;23.40;46.00
4411;DHT22;2218;51.408;7.208;2022-07-10T06:44:48;23.50;46.10
4411;DHT22;2218;51.408;7.208;2022-07-10T06:47:18;23.40;46.00
4411;DHT22;2218;51.408;7.208;2022-07-10T06:50:04;23.40;46.00
4411;DHT22;2218;51.408;7.208;2022-07-10T06:52:32;23.40;46.00
4411;DHT22;2218;51.408;7.208;2022-07-10T06:55:00;23.40;46.00
4411;DHT22;2218;51.408;7.208;2022-07-10T06:57:28;23.40;46.00
4411;DHT22;2218;51.408;7.208;2022-07-10T06:59:56;23.40;46.00
4411;DHT22;2218;51.408;7.208;2022-07-10T07:02:23;23.40;46.00
4411;DHT22;2218;51.408;7.208;2022-07-10T07:04:51;23.40;46.00
4411;DHT22;2218;51.408;7.208;2022-07-10T07:07:17;23.40;46.00
4411;DHT22;2218;51.408;7.208;2022-07-10T07:09:44;23.40;46.00
4411;DHT22;2218;51.408;7.208;2022-07-10T07:12:15;23.40;46.00
4411;DHT22;2218;51.408;7.208;2022-07-10T07:14:42;23.40;46.00
4411;DHT22;2218;51.408;7.208;2022-07-10T07:17:10;23.40;46.00
4411;DHT22;2218;51.408;7.208;2022-07-10T07:19:40;23.40;46.00
4411;DHT22;2218;51.408;7.208;2022-07-10T07:22:24;23.40;46.10
4411;DHT22;2218;51.408;7.208;2022-07-10T07:25:10;23.40;46.00
4411;DHT22;2218;51.408;7.208;2022-07-10T07:27:38;23.40;46.00
4411;DHT22;2218;51.408;7.208;2022-07-10T07:30:07;23.40;46.10
4411;DHT22;2218;51.408;7.208;2022-07-10T07:32:39;23.40;46.00
4411;DHT22;2218;51.408;7.208;2022-07-10T07:35:07;23.40;46.00
4411;DHT22;2218;51.408;7.208;2022-07-10T07:37:36;23.40;46.00
4411;DHT22;2218;51.408;7.208;2022-07-10T07:40:08;23.30;45.90
4411;DHT22;2218;51.408;7.208;2022-07-10T07:42:37;23.40;46.00
4411;DHT22;2218;51.408;7.208;2022-07-10T07:45:05;23.40;46.00
4411;DHT22;2218;51.408;7.208;2022-07-10T07:47:44;23.40;46.00
4411;DHT22;2218;51.408;7.208;2022-07-10T07:50:13;23.40;46.00
4411;DHT22;2218;51.408;7.208;2022-07-10T07:52:41;23.40;45.90
4411;DHT22;2218;51.408;7.208;2022-07-10T07:55:09;23.40;46.00
4411;DHT22;2218;51.408;7.208;2022-07-10T07:57:37;23.30;45.90
4411;DHT22;2218;51.408;7.208;2022-07-10T08:00:06;23.30;45.90
4411;DHT22;2218;51.408;7.208;2022-07-10T08:02:40;23.40;46.00
4411;DHT22;2218;51.408;7.208;2022-07-10T08:05:09;23.40;46.00
4411;DHT22;2218;51.408;7.208;2022-07-10T08:07:38;23.40;46.00
4411;DHT22;2218;51.408;7.208;2022-07-10T08:10:09;23.30;45.90
4411;DHT22;2218;51.408;7.208;2022-07-10T08:12:38;23.30;45.90
4411;DHT22;2218;51.408;7.208;2022-07-10T08:15:08;23.30;46.00
4411;DHT22;2218;51.408;7.208;2022-07-10T08:17:37;23.30;46.00
4411;DHT22;2218;51.408;7.208;2022-07-10T08:20:09;23.30;46.00
4411;DHT22;2218;51.408;7.208;2022-07-10T08:22:38;23.30;46.00
4411;DHT22;2218;51.408;7.208;2022-07-10T08:25:06;23.30;46.00
4411;DHT22;2218;51.408;7.208;2022-07-10T08:27:33;23.30;46.00
4411;DHT22;2218;51.408;7.208;2022-07-10T08:30:00;23.30;46.00
4411;DHT22;2218;51.408;7.208;2022-07-10T08:32:27;23.30;46.00
4411;DHT22;2218;51.408;7.208;2022-07-10T08:34:54;23.30;46.00
4411;DHT22;2218;51.408;7.208;2022-07-10T08:37:23;23.30;46.00
4411;DHT22;2218;51.408;7.208;2022-07-10T08:39:50;23.30;46.00
4411;DHT22;2218;51.408;7.208;2022-07-10T08:42:18;23.30;46.00
4411;DHT22;2218;51.408;7.208;2022-07-10T08:44:45;23.30;46.00
4411;DHT22;2218;51.408;7.208;2022-07-10T08:47:13;23.30;46.00
4411;DHT22;2218;51.408;7.208;2022-07-10T08:49:46;23.30;46.00
4411;DHT22;2218;51.408;7.208;2022-07-10T08:52:27;23.30;46.00
4411;DHT22;2218;51.408;7.208;2022-07-10T08:54:58;23.30;46.00
4411;DHT22;2218;51.408;7.208;2022-07-10T08:57:26;23.30;46.00
4411;DHT22;2218;51.408;7.208;2022-07-10T08:59:55;23.30;46.00
4411;DHT22;2218;51.408;7.208;2022-07-10T09:02:22;23.30;46.00
4411;DHT22;2218;51.408;7.208;2022-07-10T09:04:49;23.30;46.00
4411;DHT22;2218;51.408;7.208;2022-07-10T09:07:16;23.30;46.00
4411;DHT22;2218;51.408;7.208;2022-07-10T09:09:55;23.30;46.10
4411;DHT22;2218;51.408;7.208;2022-07-10T09:12:24;23.30;46.00
4411;DHT22;2218;51.408;7.208;2022-07-10T09:14:51;23.30;46.00
4411;DHT22;2218;51.408;7.208;2022-07-10T09:17:18;23.30;46.00
4411;DHT22;2218;51.408;7.208;2022-07-10T09:19:46;23.30;46.60
4411;DHT22;2218;51.408;7.208;2022-07-10T09:22:13;23.30;46.10
4411;DHT22;2218;51.408;7.208;2022-07-10T09:24:42;23.30;46.10
4411;DHT22;2218;51.408;7.208;2022-07-10T09:27:13;23.30;46.10
4411;DHT22;2218;51.408;7.208;2022-07-10T09:29:45;23.30;46.10
4411;DHT22;2218;51.408;7.208;2022-07-10T09:32:15;23.30;46.10
4411;DHT22;2218;51.408;7.208;2022-07-10T09:34:43;23.30;46.10
4411;DHT22;2218;51.408;7.208;2022-07-10T09:37:18;23.30;46.10
4411;DHT22;2218;51.408;7.208;2022-07-10T09:39:54;23.30;46.10
4411;DHT22;2218;51.408;7.208;2022-07-10T09:42:27;23.30;46.10
4411;DHT22;2218;51.408;7.208;2022-07-10T09:45:16;23.30;46.10
4411;DHT22;2218;51.408;7.208;2022-07-10T09:47:47;23.30;46.20
4411;DHT22;2218;51.408;7.208;2022-07-10T09:50:24;23.30;46.20
4411;DHT22;2218;51.408;7.208;2022-07-10T09:52:54;23.30;46.20
4411;DHT22;2218;51.408;7.208;2022-07-10T09:55:23;23.30;46.20
4411;DHT22;2218;51.408;7.208;2022-07-10T09:57:55;23.30;46.20
4411;DHT22;2218;51.408;7.208;2022-07-10T10:00:25;23.30;46.20
4411;DHT22;2218;51.408;7.208;2022-07-10T10:02:59;23.30;46.20
4411;DHT22;2218;51.408;7.208;2022-07-10T10:05:36;23.30;46.20
4411;DHT22;2218;51.408;7.208;2022-07-10T10:08:11;23.30;46.30
4411;DHT22;2218;51.408;7.208;2022-07-10T10:10:45;23.30;46.30
4411;DHT22;2218;51.408;7.208;2022-07-10T10:13:17;23.30;46.30
4411;DHT22;2218;51.408;7.208;2022-07-10T10:15:48;23.30;46.30
4411;DHT22;2218;51.408;7.208;2022-07-10T10:18:17;23.30;46.30
4411;DHT22;2218;51.408;7.208;2022-07-10T10:20:45;23.30;46.90
4411;DHT22;2218;51.408;7.208;2022-07-10T10:23:14;23.30;46.30
4411;DHT22;2218;51.408;7.208;2022-07-10T10:25:44;23.30;46.40
4411;DHT22;2218;51.408;7.208;2022-07-10T10:28:12;23.30;46.40
4411;DHT22;2218;51.408;7.208;2022-07-10T10:30:44;23.30;46.40
4411;DHT22;2218;51.408;7.208;2022-07-10T10:33:43;23.30;46.40
4411;DHT22;2218;51.408;7.208;2022-07-10T10:36:13;23.30;46.40
4411;DHT22;2218;51.408;7.208;2022-07-10T10:39:03;23.30;46.40
4411;DHT22;2218;51.408;7.208;2022-07-10T10:41:40;23.30;46.40
4411;DHT22;2218;51.408;7.208;2022-07-10T10:44:27;23.30;46.50
4411;DHT22;2218;51.408;7.208;2022-07-10T10:47:03;23.30;46.50
4411;DHT22;2218;51.408;7.208;2022-07-10T10:49:57;23.20;46.40
4411;DHT22;2218;51.408;7.208;2022-07-10T10:52:25;23.30;46.50
4411;DHT22;2218;51.408;7.208;2022-07-10T10:55:06;23.30;46.50
4411;DHT22;2218;51.408;7.208;2022-07-10T10:57:41;23.30;46.50
4411;DHT22;2218;51.408;7.208;2022-07-10T11:00:33;23.30;46.50
4411;DHT22;2218;51.408;7.208;2022-07-10T11:03:15;23.30;46.50
4411;DHT22;2218;51.408;7.208;2022-07-10T11:05:45;23.30;46.60
4411;DHT22;2218;51.408;7.208;2022-07-10T11:08:14;23.30;46.50
4411;DHT22;2218;51.408;7.208;2022-07-10T11:11:01;23.30;46.60
4411;DHT22;2218;51.408;7.208;2022-07-10T11:13:49;23.20;46.50
4411;DHT22;2218;51.408;7.208;2022-07-10T11:16:16;23.20;46.50
4411;DHT22;2218;51.408;7.208;2022-07-10T11:18:45;23.30;46.50
4411;DHT22;2218;51.408;7.208;2022-07-10T11:21:23;23.30;46.50
4411;DHT22;2218;51.408;7.208;2022-07-10T11:23:57;23.30;46.50
4411;DHT22;2218;51.408;7.208;2022-07-10T11:26:35;23.30;46.60
4411;DHT22;2218;51.408;7.208;2022-07-10T11:29:17;23.30;46.60
4411;DHT22;2218;51.408;7.208;2022-07-10T11:31:52;23.30;46.60
4411;DHT22;2218;51.408;7.208;2022-07-10T11:34:21;23.20;46.60
4411;DHT22;2218;51.408;7.208;2022-07-10T11:36:49;23.30;46.60
4411;DHT22;2218;51.408;7.208;2022-07-10T11:39:16;23.20;46.60
4411;DHT22;2218;51.408;7.208;2022-07-10T11:41:43;23.30;46.60
4411;DHT22;2218;51.408;7.208;2022-07-10T11:44:14;23.20;46.60
4411;DHT22;2218;51.408;7.208;2022-07-10T11:46:43;23.20;46.60
4411;DHT22;2218;51.408;7.208;2022-07-10T11:49:15;23.30;46.60
4411;DHT22;2218;51.408;7.208;2022-07-10T11:51:44;23.20;46.60
4411;DHT22;2218;51.408;7.208;2022-07-10T11:54:12;23.30;46.70
4411;DHT22;2218;51.408;7.208;2022-07-10T11:56:45;23.30;46.70
4411;DHT22;2218;51.408;7.208;2022-07-10T11:59:15;23.30;46.70
4411;DHT22;2218;51.408;7.208;2022-07-10T12:01:44;23.30;46.80
4411;DHT22;2218;51.408;7.208;2022-07-10T12:04:13;23.20;46.70
4411;DHT22;2218;51.408;7.208;2022-07-10T12:06:44;23.20;46.70
4411;DHT22;2218;51.408;7.208;2022-07-10T12:09:13;23.20;46.70
4411;DHT22;2218;51.408;7.208;2022-07-10T12:11:42;23.30;46.80
4411;DHT22;2218;51.408;7.208;2022-07-10T12:14:12;23.20;46.70
4411;DHT22;2218;51.408;7.208;2022-07-10T12:16:41;23.20;46.80
4411;DHT22;2218;51.408;7.208;2022-07-10T12:19:11;23.30;46.90
4411;DHT22;2218;51.408;7.208;2022-07-10T12:21:41;23.20;46.80
4411;DHT22;2218;51.408;7.208;2022-07-10T12:24:11;23.20;46.80
4411;DHT22;2218;51.408;7.208;2022-07-10T12:26:40;23.20;46.80
4411;DHT22;2218;51.408;7.208;2022-07-10T12:29:11;23.20;46.80
4411;DHT22;2218;51.408;7.208;2022-07-10T12:31:47;23.20;46.80
4411;DHT22;2218;51.408;7.208;2022-07-10T12:34:16;23.20;46.80
4411;DHT22;2218;51.408;7.208;2022-07-10T12:36:46;23.30;46.80
4411;DHT22;2218;51.408;7.208;2022-07-10T12:39:17;23.30;46.90
4411;DHT22;2218;51.408;7.208;2022-07-10T12:41:54;23.30;46.90
4411;DHT22;2218;51.408;7.208;2022-07-10T12:44:38;23.30;46.90
4411;DHT22;2218;51.408;7.208;2022-07-10T12:47:08;23.30;46.90
4411;DHT22;2218;51.408;7.208;2022-07-10T12:49:50;23.30;46.90
4411;DHT22;2218;51.408;7.208;2022-07-10T12:52:26;23.30;46.90
4411;DHT22;2218;51.408;7.208;2022-07-10T12:55:12;23.30;46.90
4411;DHT22;2218;51.408;7.208;2022-07-10T12:57:51;23.30;46.90
4411;DHT22;2218;51.408;7.208;2022-07-10T13:00:22;23.30;46.90
4411;DHT22;2218;51.408;7.208;2022-07-10T13:02:57;23.30;47.00
4411;DHT22;2218;51.408;7.208;2022-07-10T13:05:27;23.30;47.00
4411;DHT22;2218;51.408;7.208;2022-07-10T13:08:08;23.30;47.00
4411;DHT22;2218;51.408;7.208;2022-07-10T13:10:39;23.30;47.10
4411;DHT22;2218;51.408;7.208;2022-07-10T13:13:07;23.30;47.10
4411;DHT22;2218;51.408;7.208;2022-07-10T13:15:34;23.30;47.10
4411;DHT22;2218;51.408;7.208;2022-07-10T13:18:06;23.30;47.10
4411;DHT22;2218;51.408;7.208;2022-07-10T13:20:33;23.30;47.10
4411;DHT22;2218;51.408;7.208;2022-07-10T13:23:00;23.30;47.10
4411;DHT22;2218;51.408;7.208;2022-07-10T13:25:27;23.30;47.10
4411;DHT22;2218;51.408;7.208;2022-07-10T13:27:55;23.30;47.00
4411;DHT22;2218;51.408;7.208;2022-07-10T13:30:23;23.30;47.10
4411;DHT22;2218;51.408;7.208;2022-07-10T13:32:50;23.30;47.10
4411;DHT22;2218;51.408;7.208;2022-07-10T13:35:17;23.30;47.10
4411;DHT22;2218;51.408;7.208;2022-07-10T13:37:44;23.30;47.00
4411;DHT22;2218;51.408;7.208;2022-07-10T13:40:12;23.30;47.10
4411;DHT22;2218;51.408;7.208;2022-07-10T13:42:39;23.30;47.10
4411;DHT22;2218;51.408;7.208;2022-07-10T13:45:08;23.30;47.10
4411;DHT22;2218;51.408;7.208;2022-07-10T13:47:35;23.30;47.20
4411;DHT22;2218;51.408;7.208;2022-07-10T13:50:03;23.30;47.20
4411;DHT22;2218;51.408;7.208;2022-07-10T13:52:30;23.30;47.20
4411;DHT22;2218;51.408;7.208;2022-07-10T13:54:57;23.30;47.20
4411;DHT22;2218;51.408;7.208;2022-07-10T13:57:24;23.30;47.20
4411;DHT22;2218;51.408;7.208;2022-07-10T13:59:52;23.30;47.20
4411;DHT22;2218;51.408;7.208;2022-07-10T14:02:21;23.30;47.20
4411;DHT22;2218;51.408;7.208;2022-07-10T14:04:48;23.30;47.30
4411;DHT22;2218;51.408;7.208;2022-07-10T14:07:15;23.30;47.20
4411;DHT22;2218;51.408;7.208;2022-07-10T14:09:42;23.30;47.20
4411;DHT22;2218;51.408;7.208;2022-07-10T14:12:09;23.30;47.20
4411;DHT22;2218;51.408;7.208;2022-07-10T14:14:37;23.30;47.20
4411;DHT22;2218;51.408;7.208;2022-07-10T14:17:04;23.30;47.20
4411;DHT22;2218;51.408;7.208;2022-07-10T14:19:32;23.40;47.30
4411;DHT22;2218;51.408;7.208;2022-07-10T14:21:59;23.30;47.30
4411;DHT22;2218;51.408;7.208;2022-07-10T14:24:26;23.30;47.30
4411;DHT22;2218;51.408;7.208;2022-07-10T14:26:54;23.30;47.30
4411;DHT22;2218;51.408;7.208;2022-07-10T14:29:21;23.30;47.30
4411;DHT22;2218;51.408;7.208;2022-07-10T14:31:48;23.30;47.30
4411;DHT22;2218;51.408;7.208;2022-07-10T14:34:15;23.30;47.30
4411;DHT22;2218;51.408;7.208;2022-07-10T14:36:44;23.30;47.30
4411;DHT22;2218;51.408;7.208;2022-07-10T14:39:11;23.30;47.30
4411;DHT22;2218;51.408;7.208;2022-07-10T14:41:38;23.30;47.40
4411;DHT22;2218;51.408;7.208;2022-07-10T14:44:06;23.30;47.40
4411;DHT22;2218;51.408;7.208;2022-07-10T14:46:33;23.30;47.40
4411;DHT22;2218;51.408;7.208;2022-07-10T14:49:00;23.30;47.40
4411;DHT22;2218;51.408;7.208;2022-07-10T14:51:27;23.30;47.40
4411;DHT22;2218;51.408;7.208;2022-07-10T14:53:56;23.30;47.40
4411;DHT22;2218;51.408;7.208;2022-07-10T14:56:23;23.30;47.40
4411;DHT22;2218;51.408;7.208;2022-07-10T14:58:50;23.30;47.40
4411;DHT22;2218;51.408;7.208;2022-07-10T15:01:17;23.30;47.40
4411;DHT22;2218;51.408;7.208;2022-07-10T15:03:44;23.30;47.40
4411;DHT22;2218;51.408;7.208;2022-07-10T15:06:11;23.30;47.40
4411;DHT22;2218;51.408;7.208;2022-07-10T15:08:38;23.30;47.40
4411;DHT22;2218;51.408;7.208;2022-07-10T15:11:07;23.30;47.40
4411;DHT22;2218;51.408;7.208;2022-07-10T15:13:34;23.30;47.40
4411;DHT22;2218;51.408;7.208;2022-07-10T15:16:01;23.30;47.40
4411;DHT22;2218;51.408;7.208;2022-07-10T15:18:28;23.30;47.40
4411;DHT22;2218;51.408;7.208;2022-07-10T15:20:55;23.30;47.40
4411;DHT22;2218;51.408;7.208;2022-07-10T15:23:24;23.30;47.40
4411;DHT22;2218;51.408;7.208;2022-07-10T15:25:51;23.30;47.40
4411;DHT22;2218;51.408;7.208;2022-07-10T15:28:19;23.30;47.40
4411;DHT22;2218;51.408;7.208;2022-07-10T15:30:46;23.30;47.40
4411;DHT22;2218;51.408;7.208;2022-07-10T15:33:13;23.30;47.40
4411;DHT22;2218;51.408;7.208;2022-07-10T15:35:40;23.30;47.40
4411;DHT22;2218;51.408;7.208;2022-07-10T15:38:07;23.30;47.40
4411;DHT22;2218;51.408;7.208;2022-07-10T15:40:34;23.30;47.40
4411;DHT22;2218;51.408;7.208;2022-07-10T15:43:01;23.30;47.40
4411;DHT22;2218;51.408;7.208;2022-07-10T15:45:30;23.30;47.40
4411;DHT22;2218;51.408;7.208;2022-07-10T15:47:57;23.30;47.50
4411;DHT22;2218;51.408;7.208;2022-07-10T15:50:24;23.30;47.50
4411;DHT22;2218;51.408;7.208;2022-07-10T15:52:51;23.30;47.50
4411;DHT22;2218;51.408;7.208;2022-07-10T15:55:18;23.20;47.50
4411;DHT22;2218;51.408;7.208;2022-07-10T15:57:45;23.30;47.50
4411;DHT22;2218;51.408;7.208;2022-07-10T16:00:12;23.20;47.50
4411;DHT22;2218;51.408;7.208;2022-07-10T16:02:41;23.30;47.60
4411;DHT22;2218;51.408;7.208;2022-07-10T16:05:08;23.20;47.50
4411;DHT22;2218;51.408;7.208;2022-07-10T16:07:35;23.20;47.50
4411;DHT22;2218;51.408;7.208;2022-07-10T16:10:03;23.30;47.50
4411;DHT22;2218;51.408;7.208;2022-07-10T16:12:31;23.30;47.60
4411;DHT22;2218;51.408;7.208;2022-07-10T16:14:58;23.30;47.50